createdAt,value
2023-04-15T00:01:55.038Z,8.60
2023-04-15T00:04:24.428Z,8.58
2023-04-15T00:06:54.872Z,8.55
2023-04-15T00:09:24.351Z,8.49
2023-04-15T00:11:51.510Z,8.55
2023-04-15T00:14:21.194Z,8.54
2023-04-15T00:16:50.202Z,8.50
2023-04-15T00:19:17.067Z,8.35
2023-04-15T00:21:43.680Z,8.34
2023-04-15T00:24:12.840Z,8.37
2023-04-15T00:26:39.818Z,8.14
2023-04-15T00:29:10.394Z,8.19
2023-04-15T00:31:39.518Z,8.25
2023-04-15T00:34:06.402Z,8.28
2023-04-15T00:36:34.170Z,8.19
2023-04-15T00:39:01.631Z,8.21
2023-04-15T00:41:30.749Z,8.19
2023-04-15T00:43:57.654Z,7.97
2023-04-15T00:46:27.368Z,8.14
2023-04-15T00:48:55.100Z,8.10
2023-04-15T00:51:21.748Z,8.01
2023-04-15T00:53:48.913Z,8.14
2023-04-15T00:56:16.150Z,8.12
2023-04-15T00:58:43.040Z,8.05
2023-04-15T01:01:10.288Z,8.07
2023-04-15T01:03:37.266Z,7.92
2023-04-15T01:06:04.546Z,7.95
2023-04-15T01:08:31.965Z,7.95
2023-04-15T01:11:03.487Z,7.94
2023-04-15T01:13:31.375Z,7.92
2023-04-15T01:15:58.159Z,7.90
2023-04-15T01:18:25.464Z,7.76
2023-04-15T01:20:52.174Z,7.79
2023-04-15T01:23:22.186Z,7.64
2023-04-15T01:25:53.683Z,7.72
2023-04-15T01:28:23.021Z,7.65
2023-04-15T01:30:51.882Z,7.64
2023-04-15T01:33:18.638Z,7.49
2023-04-15T01:35:45.326Z,7.60
2023-04-15T01:38:12.483Z,7.47
2023-04-15T01:40:41.750Z,7.53
2023-04-15T01:43:10.651Z,7.49
2023-04-15T01:45:37.598Z,7.44
2023-04-15T01:48:04.298Z,7.42
2023-04-15T01:50:31.622Z,7.33
2023-04-15T01:52:58.477Z,7.24
2023-04-15T01:55:27.837Z,7.25
2023-04-15T01:57:54.497Z,7.07
2023-04-15T02:00:23.393Z,7.20
2023-04-15T02:02:50.132Z,7.21
2023-04-15T02:05:16.875Z,7.20
2023-04-15T02:07:43.790Z,6.32
2023-04-15T02:10:13.706Z,7.03
2023-04-15T02:12:45.331Z,7.12
2023-04-15T02:15:12.005Z,7.03
2023-04-15T02:17:38.794Z,7.02
2023-04-15T02:20:06.263Z,6.98
2023-04-15T02:22:35.394Z,6.93
2023-04-15T02:25:02.093Z,6.84
2023-04-15T02:27:29.284Z,6.83
2023-04-15T02:29:56.031Z,6.88
2023-04-15T02:32:24.496Z,6.77
2023-04-15T02:34:51.413Z,6.75
2023-04-15T02:37:19.360Z,6.77
2023-04-15T02:39:46.903Z,6.72
2023-04-15T02:42:13.856Z,6.66
2023-04-15T02:44:40.646Z,6.59
2023-04-15T02:47:07.535Z,6.67
2023-04-15T02:49:34.313Z,6.64
2023-04-15T02:52:03.485Z,6.65
2023-04-15T02:54:30.556Z,6.63
2023-04-15T02:56:59.424Z,6.58
2023-04-15T02:59:28.304Z,6.58
2023-04-15T03:02:01.179Z,6.43
2023-04-15T03:04:31.000Z,6.54
2023-04-15T03:06:57.723Z,6.46
2023-04-15T03:09:27.156Z,6.52
2023-04-15T03:11:57.070Z,5.34
2023-04-15T03:14:26.069Z,6.31
2023-04-15T03:16:55.339Z,6.40
2023-04-15T03:19:22.237Z,6.34
2023-04-15T03:21:52.177Z,6.16
2023-04-15T03:24:18.949Z,6.26
2023-04-15T03:26:45.643Z,6.07
2023-04-15T03:29:14.413Z,6.28
2023-04-15T03:31:41.854Z,6.28
2023-04-15T03:34:08.592Z,6.28
2023-04-15T03:36:35.396Z,6.25
2023-04-15T03:39:04.396Z,6.23
2023-04-15T03:41:31.255Z,6.22
2023-04-15T03:43:57.902Z,6.11
2023-04-15T03:46:24.752Z,6.13
2023-04-15T03:48:51.669Z,6.15
2023-04-15T03:51:18.343Z,6.14
2023-04-15T03:53:45.036Z,6.13
2023-04-15T03:56:11.693Z,5.94
2023-04-15T03:58:38.413Z,6.08
2023-04-15T04:01:05.407Z,6.07
2023-04-15T04:03:32.388Z,5.95
2023-04-15T04:05:59.513Z,5.94
2023-04-15T04:08:27.807Z,6.00
2023-04-15T04:10:54.485Z,6.01
2023-04-15T04:13:21.315Z,6.01
2023-04-15T04:15:48.150Z,5.90
2023-04-15T04:18:14.885Z,5.96
2023-04-15T04:20:42.264Z,5.86
2023-04-15T04:23:10.842Z,5.76
2023-04-15T04:25:37.818Z,5.64
2023-04-15T04:28:04.766Z,5.75
2023-04-15T04:30:31.782Z,5.69
2023-04-15T04:32:58.800Z,5.66
2023-04-15T04:35:28.252Z,5.70
2023-04-15T04:37:57.577Z,5.65
2023-04-15T04:40:24.316Z,5.53
2023-04-15T04:42:53.283Z,5.66
2023-04-15T04:45:20.560Z,5.61
2023-04-15T04:47:48.003Z,5.60
2023-04-15T04:50:17.311Z,5.57
2023-04-15T04:52:44.234Z,5.57
2023-04-15T04:55:13.418Z,5.64
2023-04-15T04:57:40.104Z,5.63
2023-04-15T05:00:14.926Z,5.65
2023-04-15T05:02:46.622Z,5.67
2023-04-15T05:05:13.674Z,5.61
2023-04-15T05:07:42.714Z,5.72
2023-04-15T05:10:13.011Z,5.84
2023-04-15T05:12:40.010Z,5.97
2023-04-15T05:15:07.689Z,6.03
2023-04-15T05:17:35.437Z,6.37
2023-04-15T05:20:05.105Z,7.04
2023-04-15T05:22:32.105Z,7.67
2023-04-15T05:25:01.370Z,7.92
2023-04-15T05:27:28.090Z,8.10
2023-04-15T05:29:57.295Z,8.16
2023-04-15T05:32:24.298Z,7.98
2023-04-15T05:34:51.498Z,7.56
2023-04-15T05:37:20.898Z,7.27
2023-04-15T05:39:48.415Z,7.08
2023-04-15T05:42:15.629Z,6.99
2023-04-15T05:44:42.786Z,6.85
2023-04-15T05:47:10.383Z,6.84
2023-04-15T05:49:40.047Z,6.88
2023-04-15T05:52:06.676Z,6.94
2023-04-15T05:54:34.673Z,6.98
2023-04-15T05:57:02.235Z,7.10
2023-04-15T05:59:29.050Z,7.35
2023-04-15T06:01:55.779Z,7.59
2023-04-15T06:04:25.036Z,7.84
2023-04-15T06:06:52.263Z,8.13
2023-04-15T06:09:23.066Z,8.64
2023-04-15T06:11:50.224Z,9.25
2023-04-15T06:14:17.086Z,9.76
2023-04-15T06:16:44.092Z,10.39
2023-04-15T06:19:11.046Z,11.45
2023-04-15T06:21:38.023Z,12.38
2023-04-15T06:24:05.175Z,13.48
2023-04-15T06:26:36.885Z,14.36
2023-04-15T06:29:03.974Z,14.90
2023-04-15T06:31:33.279Z,14.85
2023-04-15T06:34:00.185Z,15.01
2023-04-15T06:36:28.018Z,15.31
2023-04-15T06:38:54.858Z,15.61
2023-04-15T06:41:21.720Z,16.03
2023-04-15T06:43:53.016Z,15.99
2023-04-15T06:46:20.287Z,16.14
2023-04-15T06:48:47.680Z,16.27
2023-04-15T06:51:14.531Z,16.64
2023-04-15T06:53:42.681Z,17.25
2023-04-15T06:56:11.959Z,16.95
2023-04-15T06:58:38.885Z,17.02
2023-04-15T07:01:08.081Z,16.97
2023-04-15T07:03:35.356Z,16.84
2023-04-15T07:06:06.629Z,17.17
2023-04-15T07:08:33.925Z,17.88
2023-04-15T07:11:02.516Z,17.66
2023-04-15T07:13:34.226Z,18.17
2023-04-15T07:16:03.126Z,18.19
2023-04-15T07:18:30.386Z,17.81
2023-04-15T07:20:57.587Z,18.01
2023-04-15T07:23:26.610Z,17.54
2023-04-15T07:25:53.707Z,17.98
2023-04-15T07:28:23.205Z,18.20
2023-04-15T07:30:50.192Z,18.21
2023-04-15T07:33:19.654Z,18.93
2023-04-15T07:35:47.033Z,18.95
2023-04-15T07:38:13.847Z,19.12
2023-04-15T07:40:41.135Z,18.42
2023-04-15T07:43:09.028Z,18.72
2023-04-15T07:45:35.953Z,18.31
2023-04-15T07:48:03.119Z,17.90
2023-04-15T07:50:29.877Z,17.61
2023-04-15T07:52:57.405Z,17.76
2023-04-15T07:55:24.553Z,17.56
2023-04-15T07:57:51.962Z,17.49
2023-04-15T08:00:18.740Z,16.95
2023-04-15T08:02:48.626Z,17.53
2023-04-15T08:05:16.035Z,16.40
2023-04-15T08:07:42.806Z,17.67
2023-04-15T08:10:10.410Z,17.53
2023-04-15T08:12:41.230Z,17.35
2023-04-15T08:15:09.266Z,17.60
2023-04-15T08:17:36.075Z,17.52
2023-04-15T08:20:06.018Z,18.46
2023-04-15T08:22:32.730Z,19.06
2023-04-15T08:24:59.836Z,18.82
2023-04-15T08:27:26.578Z,18.07
2023-04-15T08:29:56.115Z,19.24
2023-04-15T08:32:22.893Z,19.44
2023-04-15T08:34:50.036Z,19.88
2023-04-15T08:37:17.235Z,19.80
2023-04-15T08:39:45.414Z,20.34
2023-04-15T08:42:18.594Z,20.48
2023-04-15T08:44:46.837Z,19.87
2023-04-15T08:47:17.720Z,19.34
2023-04-15T08:49:44.586Z,19.21
2023-04-15T08:52:12.383Z,19.89
2023-04-15T08:54:39.088Z,18.67
2023-04-15T08:57:07.096Z,19.11
2023-04-15T08:59:36.566Z,17.95
2023-04-15T09:02:08.688Z,18.34
2023-04-15T09:04:35.594Z,18.07
2023-04-15T09:07:02.222Z,18.13
2023-04-15T09:09:29.468Z,17.85
2023-04-15T09:11:58.763Z,16.69
2023-04-15T09:14:25.687Z,17.12
2023-04-15T09:17:05.302Z,16.86
2023-04-15T09:19:34.793Z,16.44
2023-04-15T09:22:25.124Z,16.10
2023-04-15T09:25:01.393Z,15.68
2023-04-15T09:27:43.470Z,15.60
2023-04-15T09:30:24.017Z,15.57
2023-04-15T09:32:54.585Z,15.58
2023-04-15T09:35:27.456Z,15.56
2023-04-15T09:38:10.838Z,15.53
2023-04-15T09:40:44.302Z,15.14
2023-04-15T09:43:13.693Z,14.89
2023-04-15T09:45:50.136Z,14.86
2023-04-15T09:48:26.859Z,14.95
2023-04-15T09:50:54.079Z,14.96
2023-04-15T09:53:23.112Z,14.95
2023-04-15T09:55:56.638Z,15.05
2023-04-15T09:58:30.181Z,15.01
2023-04-15T10:01:01.866Z,14.86
2023-04-15T10:03:36.890Z,14.92
2023-04-15T10:06:04.281Z,15.01
2023-04-15T10:08:33.711Z,14.95
2023-04-15T10:11:05.179Z,14.91
2023-04-15T10:13:37.323Z,14.80
2023-04-15T10:16:12.054Z,14.76
2023-04-15T10:18:43.347Z,14.56
2023-04-15T10:21:14.027Z,14.57
2023-04-15T10:23:41.136Z,14.69
2023-04-15T10:26:08.278Z,14.61
2023-04-15T10:28:35.067Z,14.65
2023-04-15T10:31:02.254Z,14.84
2023-04-15T10:33:32.243Z,14.84
2023-04-15T10:36:04.647Z,14.96
2023-04-15T10:38:36.694Z,14.91
2023-04-15T10:41:20.786Z,14.96
2023-04-15T10:43:53.881Z,14.90
2023-04-15T10:46:45.451Z,15.13
2023-04-15T10:49:17.214Z,15.07
2023-04-15T10:51:46.913Z,14.96
2023-04-15T10:54:14.956Z,15.01
2023-04-15T10:56:45.412Z,15.17
2023-04-15T10:59:12.385Z,15.23
2023-04-15T11:02:05.973Z,15.22
2023-04-15T11:04:54.896Z,14.87
2023-04-15T11:07:36.894Z,14.94
2023-04-15T11:10:27.031Z,14.83
2023-04-15T11:12:57.542Z,14.93
2023-04-15T11:15:47.881Z,14.13
2023-04-15T11:18:25.832Z,14.83
2023-04-15T11:20:59.928Z,14.89
2023-04-15T11:23:31.573Z,14.93
2023-04-15T11:26:00.842Z,15.01
2023-04-15T11:28:43.207Z,15.15
2023-04-15T11:31:18.718Z,14.80
2023-04-15T11:33:54.444Z,14.89
2023-04-15T11:36:23.900Z,14.76
2023-04-15T11:38:50.556Z,15.01
2023-04-15T11:41:24.025Z,14.85
2023-04-15T11:43:51.443Z,15.25
2023-04-15T11:46:18.683Z,15.21
2023-04-15T11:48:47.504Z,15.41
2023-04-15T11:51:16.707Z,15.42
2023-04-15T11:53:44.770Z,15.19
2023-04-15T11:56:21.186Z,15.17
2023-04-15T11:58:50.861Z,15.28
2023-04-15T12:01:17.804Z,15.21
2023-04-15T12:03:49.238Z,15.11
2023-04-15T12:06:31.811Z,14.92
2023-04-15T12:09:07.591Z,14.69
2023-04-15T12:11:46.564Z,14.67
2023-04-15T12:14:20.528Z,14.74
2023-04-15T12:16:52.562Z,14.93
2023-04-15T12:19:29.117Z,14.91
2023-04-15T12:22:01.697Z,15.03
2023-04-15T12:24:34.345Z,14.98
2023-04-15T12:27:16.673Z,14.96
2023-04-15T12:29:45.967Z,15.03
2023-04-15T12:32:17.219Z,15.04
2023-04-15T12:34:58.262Z,15.11
2023-04-15T12:37:26.150Z,15.09
2023-04-15T12:39:54.016Z,15.09
2023-04-15T12:42:20.796Z,15.21
2023-04-15T12:44:47.382Z,15.10
2023-04-15T12:47:16.922Z,15.11
2023-04-15T12:49:46.373Z,15.16
2023-04-15T12:52:13.618Z,15.16
2023-04-15T12:54:40.658Z,15.25
2023-04-15T12:57:07.874Z,15.33
2023-04-15T12:59:35.507Z,15.21
2023-04-15T13:02:03.050Z,15.46
2023-04-15T13:04:33.037Z,15.14
2023-04-15T13:07:02.723Z,15.09
2023-04-15T13:09:29.350Z,15.20
2023-04-15T13:11:57.656Z,15.22
2023-04-15T13:14:27.212Z,15.07
2023-04-15T13:16:53.991Z,15.31
2023-04-15T13:19:20.691Z,15.19
2023-04-15T13:21:47.304Z,15.03
2023-04-15T13:24:13.944Z,15.23
2023-04-15T13:26:40.532Z,15.23
2023-04-15T13:29:07.349Z,15.18
2023-04-15T13:31:36.577Z,15.41
2023-04-15T13:34:03.408Z,15.28
2023-04-15T13:36:30.731Z,15.34
2023-04-15T13:38:57.810Z,15.44
2023-04-15T13:41:24.448Z,15.33
2023-04-15T13:43:53.405Z,15.23
2023-04-15T13:46:20.063Z,15.25
2023-04-15T13:48:46.825Z,15.18
2023-04-15T13:51:13.430Z,15.09
2023-04-15T13:53:40.343Z,14.90
2023-04-15T13:56:08.117Z,14.73
2023-04-15T13:58:34.816Z,14.51
2023-04-15T14:01:03.180Z,14.52
2023-04-15T14:03:30.790Z,14.79
2023-04-15T14:05:59.974Z,14.74
2023-04-15T14:08:26.585Z,14.74
2023-04-15T14:10:53.186Z,14.78
2023-04-15T14:13:19.836Z,14.85
2023-04-15T14:15:50.089Z,14.80
2023-04-15T14:18:16.885Z,14.93
2023-04-15T14:20:43.428Z,14.73
2023-04-15T14:23:10.093Z,14.71
2023-04-15T14:25:39.300Z,14.79
2023-04-15T14:28:06.271Z,14.41
2023-04-15T14:30:33.236Z,14.60
2023-04-15T14:33:00.041Z,14.60
2023-04-15T14:35:27.415Z,14.52
2023-04-15T14:37:54.515Z,14.27
2023-04-15T14:40:23.731Z,14.17
2023-04-15T14:42:50.368Z,14.11
2023-04-15T14:45:17.938Z,14.00
2023-04-15T14:47:44.806Z,13.92
2023-04-15T14:50:11.699Z,14.00
2023-04-15T14:52:40.648Z,13.85
2023-04-15T14:55:13.206Z,13.88
2023-04-15T14:57:41.342Z,13.85
2023-04-15T15:00:09.989Z,13.86
2023-04-15T15:02:42.504Z,13.96
2023-04-15T15:05:10.653Z,13.88
2023-04-15T15:07:43.629Z,13.79
2023-04-15T15:10:12.467Z,13.65
2023-04-15T15:12:39.012Z,13.54
2023-04-15T15:15:15.808Z,13.56
2023-04-15T15:17:52.173Z,13.45
2023-04-15T15:20:19.368Z,13.53
2023-04-15T15:22:46.297Z,13.58
2023-04-15T15:25:12.883Z,13.49
2023-04-15T15:27:42.168Z,13.39
2023-04-15T15:30:09.800Z,13.27
2023-04-15T15:32:36.441Z,13.28
2023-04-15T15:35:05.646Z,13.20
2023-04-15T15:37:32.439Z,13.10
2023-04-15T15:40:01.934Z,13.07
2023-04-15T15:42:31.954Z,13.04
2023-04-15T15:44:58.753Z,12.90
2023-04-15T15:47:26.953Z,12.20
2023-04-15T15:49:55.184Z,12.72
2023-04-15T15:52:29.635Z,12.75
2023-04-15T15:54:56.615Z,12.69
2023-04-15T15:57:25.688Z,12.71
2023-04-15T16:00:09.876Z,12.71
2023-04-15T16:05:21.386Z,12.60
2023-04-15T16:07:58.203Z,12.54
2023-04-15T16:10:33.373Z,12.43
2023-04-15T16:13:17.467Z,12.27
2023-04-15T16:15:46.290Z,12.25
2023-04-15T16:18:15.606Z,12.21
2023-04-15T16:20:43.896Z,12.27
2023-04-15T16:23:17.398Z,12.23
2023-04-15T16:25:55.091Z,12.12
2023-04-15T16:31:06.175Z,11.87
2023-04-15T16:33:36.390Z,11.87
2023-04-15T16:36:04.526Z,11.73
2023-04-15T16:38:31.775Z,11.37
2023-04-15T16:41:01.052Z,11.45
2023-04-15T16:43:28.347Z,11.39
2023-04-15T16:45:55.062Z,11.33
2023-04-15T16:48:21.748Z,11.27
2023-04-15T16:50:49.311Z,11.25
2023-04-15T16:53:16.271Z,11.28
2023-04-15T16:55:43.062Z,11.20
2023-04-15T16:58:09.674Z,11.21
2023-04-15T17:00:38.594Z,11.15
2023-04-15T17:03:07.838Z,11.07
2023-04-15T17:05:34.577Z,10.95
2023-04-15T17:08:01.302Z,10.94
2023-04-15T17:10:31.328Z,10.85
2023-04-15T17:12:59.776Z,10.70
2023-04-15T17:15:27.223Z,10.79
2023-04-15T17:17:54.323Z,10.64
2023-04-15T17:20:21.136Z,10.63
2023-04-15T17:22:50.670Z,10.70
2023-04-15T17:25:17.733Z,10.66
2023-04-15T17:27:44.300Z,10.58
2023-04-15T17:30:13.432Z,10.53
2023-04-15T17:32:40.365Z,10.46
2023-04-15T17:35:07.738Z,10.43
2023-04-15T17:37:34.937Z,10.30
2023-04-15T17:40:02.461Z,10.38
2023-04-15T17:42:31.459Z,10.56
2023-04-15T17:44:58.025Z,10.44
2023-04-15T17:47:24.899Z,10.42
2023-04-15T17:49:51.584Z,10.13
2023-04-15T17:52:18.154Z,10.44
2023-04-15T17:54:46.254Z,10.40
2023-04-15T17:57:15.150Z,10.33
2023-04-15T17:59:47.353Z,10.24
2023-04-15T18:02:15.034Z,10.29
2023-04-15T18:04:41.835Z,10.19
2023-04-15T18:07:11.142Z,10.29
2023-04-15T18:09:40.114Z,10.21
2023-04-15T18:12:09.240Z,10.27
2023-04-15T18:14:38.592Z,10.09
2023-04-15T18:17:05.367Z,10.18
2023-04-15T18:19:32.217Z,10.11
2023-04-15T18:22:00.418Z,9.79
2023-04-15T18:24:27.483Z,10.11
2023-04-15T18:26:54.052Z,10.07
2023-04-15T18:29:20.767Z,10.03
2023-04-15T18:31:47.567Z,10.08
2023-04-15T18:34:17.295Z,10.01
2023-04-15T18:36:46.209Z,10.04
2023-04-15T18:39:15.631Z,10.07
2023-04-15T18:41:44.543Z,10.07
2023-04-15T18:44:11.204Z,9.99
2023-04-15T18:46:40.321Z,9.95
2023-04-15T18:49:11.766Z,9.85
2023-04-15T18:51:38.390Z,9.86
2023-04-15T18:54:04.975Z,9.86
2023-04-15T18:56:31.756Z,9.85
2023-04-15T18:59:19.068Z,9.88
2023-04-15T19:01:44.868Z,9.90
2023-04-15T19:04:11.797Z,9.81
2023-04-15T19:06:38.565Z,9.72
2023-04-15T19:09:05.593Z,9.72
2023-04-15T19:11:32.509Z,9.67
2023-04-15T19:13:59.047Z,9.60
2023-04-15T19:16:25.594Z,9.56
2023-04-15T19:18:54.468Z,9.63
2023-04-15T19:21:23.366Z,9.61
2023-04-15T19:23:52.231Z,9.55
2023-04-15T19:26:18.829Z,9.31
2023-04-15T19:28:47.614Z,9.46
2023-04-15T19:31:16.829Z,9.49
2023-04-15T19:33:46.527Z,9.39
2023-04-15T19:36:13.188Z,9.46
2023-04-15T19:38:39.758Z,9.43
2023-04-15T19:41:10.463Z,9.48
2023-04-15T19:43:37.085Z,9.37
2023-04-15T19:46:04.119Z,9.48
2023-04-15T19:48:33.238Z,9.50
2023-04-15T19:51:00.602Z,9.48
2023-04-15T19:53:27.221Z,9.47
2023-04-15T19:55:53.772Z,9.45
2023-04-15T19:58:20.385Z,9.36
2023-04-15T20:00:47.047Z,9.36
2023-04-15T20:03:13.934Z,9.32
2023-04-15T20:05:42.664Z,9.14
2023-04-15T20:08:09.393Z,9.19
2023-04-15T20:10:37.452Z,9.15
2023-04-15T20:13:04.446Z,9.26
2023-04-15T20:15:31.225Z,9.22
2023-04-15T20:17:58.021Z,9.18
2023-04-15T20:20:24.810Z,9.18
2023-04-15T20:22:56.121Z,9.15
2023-04-15T20:25:22.726Z,9.02
2023-04-15T20:27:51.816Z,9.22
2023-04-15T20:30:18.470Z,9.23
2023-04-15T20:32:45.092Z,9.14
2023-04-15T20:35:11.833Z,9.03
2023-04-15T20:37:38.468Z,9.06
2023-04-15T20:40:08.411Z,9.10
2023-04-15T20:42:35.211Z,8.97
2023-04-15T20:45:02.574Z,9.06
2023-04-15T20:47:29.712Z,8.96
2023-04-15T20:49:56.754Z,9.00
2023-04-15T20:52:26.532Z,8.68
2023-04-15T20:54:55.797Z,8.83
2023-04-15T20:57:24.633Z,8.98
2023-04-15T20:59:51.536Z,8.87
2023-04-15T21:02:18.544Z,8.86
2023-04-15T21:04:47.719Z,9.01
2023-04-15T21:07:14.473Z,8.99
2023-04-15T21:09:43.334Z,8.95
2023-04-15T21:12:11.143Z,8.97
2023-04-15T21:14:38.991Z,8.94
2023-04-15T21:17:11.040Z,8.93
2023-04-15T21:19:38.379Z,8.77
2023-04-15T21:22:05.134Z,8.86
2023-04-15T21:24:34.459Z,8.88
2023-04-15T21:27:02.130Z,8.86
2023-04-15T21:29:31.392Z,8.91
2023-04-15T21:31:58.381Z,8.91
2023-04-15T21:34:25.177Z,8.91
2023-04-15T21:36:52.755Z,8.89
2023-04-15T21:39:19.923Z,8.83
2023-04-15T21:41:46.796Z,8.74
2023-04-15T21:44:15.901Z,8.83
2023-04-15T21:46:45.672Z,8.74
2023-04-15T21:49:13.418Z,8.83
2023-04-15T21:51:40.588Z,8.78
2023-04-15T21:54:08.270Z,8.86
2023-04-15T21:56:35.406Z,8.63
2023-04-15T21:59:02.274Z,8.81
2023-04-15T22:01:29.229Z,8.73
2023-04-15T22:03:56.355Z,8.70
2023-04-15T22:06:23.329Z,8.84
2023-04-15T22:09:10.673Z,8.82
2023-04-15T22:11:37.306Z,8.76
2023-04-15T22:14:05.495Z,8.71
2023-04-15T22:16:32.394Z,8.73
2023-04-15T22:18:59.725Z,8.63
2023-04-15T22:21:26.901Z,8.65
2023-04-15T22:24:38.222Z,8.67
2023-04-15T22:26:41.063Z,8.72
2023-04-15T22:29:07.826Z,8.56
2023-04-15T22:31:36.897Z,8.70
2023-04-15T22:34:06.159Z,8.70
2023-04-15T22:36:35.662Z,8.70
2023-04-15T22:39:02.489Z,8.63
2023-04-15T22:41:29.278Z,8.59
2023-04-15T22:43:58.493Z,8.46
2023-04-15T22:46:27.650Z,8.67
2023-04-15T22:48:57.012Z,8.53
2023-04-15T22:51:29.528Z,8.65
2023-04-15T22:53:56.592Z,8.55
2023-04-15T22:56:23.747Z,8.32
2023-04-15T22:58:50.899Z,8.60
2023-04-15T23:01:21.469Z,8.64
2023-04-15T23:03:56.973Z,8.66
2023-04-15T23:06:30.207Z,8.64
2023-04-15T23:08:57.073Z,8.59
2023-04-15T23:11:24.046Z,8.56
2023-04-15T23:13:50.894Z,8.53
2023-04-15T23:16:17.744Z,8.56
2023-04-15T23:18:46.976Z,8.46
2023-04-15T23:21:14.057Z,8.58
2023-04-15T23:23:40.980Z,8.62
2023-04-15T23:26:08.134Z,8.60
2023-04-15T23:28:34.888Z,8.48
2023-04-15T23:31:01.626Z,8.56
2023-04-15T23:33:28.406Z,8.51
2023-04-15T23:35:56.243Z,8.60
2023-04-15T23:38:23.112Z,8.36
2023-04-15T23:40:51.343Z,8.37
2023-04-15T23:43:20.544Z,8.65
2023-04-15T23:45:49.766Z,8.62
2023-04-15T23:48:16.438Z,8.59
2023-04-15T23:50:43.586Z,8.56
2023-04-15T23:53:10.362Z,8.67
2023-04-15T23:55:39.530Z,8.60
2023-04-15T23:58:06.433Z,8.68
